createdAt,value
2017-07-05T00:01:38.602Z,4.68
2017-07-05T00:04:13.725Z,4.32
2017-07-05T00:06:48.070Z,7.90
2017-07-05T00:09:22.565Z,7.25
2017-07-05T00:11:57.718Z,9.70
2017-07-05T00:14:32.220Z,4.12
2017-07-05T00:17:06.639Z,5.78
2017-07-05T00:19:41.145Z,3.85
2017-07-05T00:22:15.724Z,4.05
2017-07-05T00:24:50.421Z,7.05
2017-07-05T00:27:24.941Z,4.55
2017-07-05T00:29:59.558Z,6.43
2017-07-05T00:32:34.665Z,4.55
2017-07-05T00:35:09.139Z,4.35
2017-07-05T00:37:43.647Z,4.55
2017-07-05T00:40:18.201Z,9.73
2017-07-05T00:42:52.665Z,12.70
2017-07-05T00:45:27.029Z,5.53
2017-07-05T00:48:02.213Z,4.68
2017-07-05T00:50:36.709Z,4.12
2017-07-05T00:53:11.355Z,5.78
2017-07-05T00:55:45.830Z,8.15
2017-07-05T00:58:20.536Z,6.62
2017-07-05T01:00:54.958Z,9.32
2017-07-05T01:03:29.301Z,5.30
2017-07-05T01:06:03.785Z,4.90
2017-07-05T01:08:38.937Z,5.10
2017-07-05T01:11:13.331Z,11.43
2017-07-05T01:13:47.845Z,7.78
2017-07-05T01:16:22.360Z,6.72
2017-07-05T01:18:56.836Z,6.15
2017-07-05T01:21:31.421Z,5.57
2017-07-05T01:24:06.061Z,5.62
2017-07-05T01:26:40.577Z,5.32
2017-07-05T01:29:15.721Z,7.12
2017-07-05T01:31:50.254Z,4.03
2017-07-05T01:34:24.742Z,6.55
2017-07-05T01:36:59.267Z,7.72
2017-07-05T01:39:33.851Z,7.90
2017-07-05T01:42:08.343Z,7.43
2017-07-05T01:44:42.914Z,6.40
2017-07-05T01:47:17.836Z,5.72
2017-07-05T01:49:52.352Z,5.78
2017-07-05T01:52:26.984Z,8.75
2017-07-05T01:55:01.408Z,5.40
2017-07-05T01:57:36.004Z,5.80
2017-07-05T02:00:10.636Z,5.62
2017-07-05T02:02:45.654Z,7.12
2017-07-05T02:05:20.270Z,6.25
2017-07-05T02:07:54.774Z,5.53
2017-07-05T02:10:29.182Z,5.85
2017-07-05T02:13:03.602Z,5.85
2017-07-05T02:15:38.059Z,7.72
2017-07-05T02:18:12.422Z,5.57
2017-07-05T02:20:46.880Z,13.65
2017-07-05T02:23:21.293Z,5.30
2017-07-05T02:25:55.802Z,10.38
2017-07-05T02:28:30.229Z,11.20
2017-07-05T02:31:04.745Z,9.35
2017-07-05T02:33:39.165Z,10.57
2017-07-05T02:36:13.902Z,8.82
2017-07-05T02:38:48.275Z,6.97
2017-07-05T02:41:22.699Z,5.90
2017-07-05T02:43:57.096Z,8.90
2017-07-05T02:46:31.890Z,8.20
2017-07-05T02:49:06.401Z,7.82
2017-07-05T02:51:40.849Z,9.25
2017-07-05T02:54:15.337Z,7.75
2017-07-05T02:56:49.868Z,7.60
2017-07-05T02:59:24.297Z,6.12
2017-07-05T03:01:58.826Z,9.88
2017-07-05T03:04:33.320Z,7.80
2017-07-05T03:07:07.965Z,8.50
2017-07-05T03:09:42.434Z,8.00
2017-07-05T03:12:16.817Z,7.53
2017-07-05T03:14:51.313Z,8.98
2017-07-05T03:17:25.701Z,11.00
2017-07-05T03:20:00.976Z,7.18
2017-07-05T03:22:35.361Z,10.48
2017-07-05T03:25:09.886Z,9.65
2017-07-05T03:27:44.431Z,10.75
2017-07-05T03:30:18.837Z,8.30
2017-07-05T03:32:53.352Z,9.00
2017-07-05T03:35:27.798Z,9.38
2017-07-05T03:38:02.321Z,14.60
2017-07-05T03:40:37.050Z,11.00
2017-07-05T03:43:12.284Z,11.70
2017-07-05T03:45:46.633Z,10.52
2017-07-05T03:48:21.948Z,11.50
2017-07-05T03:50:57.381Z,10.40
2017-07-05T03:53:31.807Z,8.25
2017-07-05T03:56:07.247Z,12.07
2017-07-05T03:58:41.770Z,8.82
2017-07-05T04:01:16.393Z,8.68
2017-07-05T04:03:50.817Z,10.40
2017-07-05T04:06:25.170Z,10.48
2017-07-05T04:08:59.749Z,13.02
2017-07-05T04:11:34.482Z,12.32
2017-07-05T04:14:08.834Z,10.45
2017-07-05T04:16:43.338Z,9.90
2017-07-05T04:19:17.638Z,9.40
2017-07-05T04:21:52.461Z,9.13
2017-07-05T04:24:26.845Z,8.82
2017-07-05T04:27:01.329Z,10.20
2017-07-05T04:29:35.849Z,7.15
2017-07-05T04:32:10.549Z,7.47
2017-07-05T04:34:45.061Z,12.30
2017-07-05T04:37:19.514Z,15.95
2017-07-05T04:39:54.819Z,8.57
2017-07-05T04:42:30.250Z,7.37
2017-07-05T04:45:04.703Z,9.50
2017-07-05T04:47:39.241Z,12.20
2017-07-05T04:50:13.715Z,9.77
2017-07-05T04:52:48.152Z,8.57
2017-07-05T04:55:22.689Z,7.55
2017-07-05T04:57:57.363Z,9.13
2017-07-05T05:00:31.784Z,6.15
2017-07-05T05:03:06.334Z,7.25
2017-07-05T05:05:40.742Z,6.90
2017-07-05T05:08:15.230Z,7.45
2017-07-05T05:10:49.618Z,7.25
2017-07-05T05:13:24.098Z,9.73
2017-07-05T05:15:58.629Z,8.93
2017-07-05T05:18:33.838Z,6.57
2017-07-05T05:21:08.430Z,7.28
2017-07-05T05:23:42.910Z,5.97
2017-07-05T05:26:17.441Z,7.20
2017-07-05T05:28:51.938Z,8.85
2017-07-05T05:31:27.090Z,12.00
2017-07-05T05:34:01.527Z,5.25
2017-07-05T05:36:36.033Z,5.47
2017-07-05T05:39:10.570Z,5.57
2017-07-05T05:41:45.126Z,7.95
2017-07-05T05:44:19.569Z,6.15
2017-07-05T05:46:54.024Z,6.28
2017-07-05T05:49:28.550Z,6.10
2017-07-05T05:52:02.989Z,6.30
2017-07-05T05:54:37.480Z,7.60
2017-07-05T05:57:12.029Z,4.57
2017-07-05T05:59:46.523Z,4.57
2017-07-05T06:02:21.012Z,3.95
2017-07-05T06:04:55.510Z,4.35
2017-07-05T06:07:29.875Z,4.45
2017-07-05T06:10:05.110Z,4.20
2017-07-05T06:12:39.571Z,4.25
2017-07-05T06:15:14.670Z,4.00
2017-07-05T06:17:49.074Z,4.60
2017-07-05T06:20:23.502Z,3.70
2017-07-05T06:22:57.997Z,4.12
2017-07-05T06:25:32.385Z,4.70
2017-07-05T06:28:06.802Z,4.35
2017-07-05T06:30:41.331Z,2.70
2017-07-05T06:33:16.609Z,4.65
2017-07-05T06:35:51.370Z,5.55
2017-07-05T06:38:25.877Z,2.78
2017-07-05T06:41:00.387Z,6.07
2017-07-05T06:43:34.785Z,5.35
2017-07-05T06:46:10.103Z,2.60
2017-07-05T06:48:44.814Z,3.25
2017-07-05T06:51:19.328Z,4.65
2017-07-05T06:53:53.864Z,5.32
2017-07-05T06:56:28.275Z,3.12
2017-07-05T06:59:02.802Z,3.40
2017-07-05T07:01:37.409Z,2.25
2017-07-05T07:04:12.727Z,3.55
2017-07-05T07:06:47.298Z,3.15
2017-07-05T07:09:21.685Z,2.97
2017-07-05T07:11:56.243Z,2.85
2017-07-05T07:14:31.143Z,3.03
2017-07-05T07:17:05.610Z,3.17
2017-07-05T07:19:40.193Z,3.03
2017-07-05T07:22:14.714Z,4.80
2017-07-05T07:24:49.918Z,4.65
2017-07-05T07:27:24.362Z,6.50
2017-07-05T07:29:58.865Z,4.65
2017-07-05T07:32:33.265Z,3.10
2017-07-05T07:35:08.515Z,4.28
2017-07-05T07:37:42.879Z,2.53
2017-07-05T07:40:17.383Z,8.02
2017-07-05T07:42:51.714Z,2.40
2017-07-05T07:45:27.006Z,2.75
2017-07-05T07:48:01.566Z,2.97
2017-07-05T07:50:36.066Z,3.65
2017-07-05T07:53:10.597Z,3.35
2017-07-05T07:55:45.239Z,2.80
2017-07-05T07:58:20.536Z,4.45
2017-07-05T08:00:54.973Z,5.40
2017-07-05T08:16:31.017Z,3.60
2017-07-05T08:19:05.390Z,4.60
2017-07-05T08:21:39.790Z,3.80
2017-07-05T08:24:14.701Z,3.05
2017-07-05T08:26:49.126Z,2.53
2017-07-05T08:29:24.327Z,6.55
2017-07-05T08:31:58.765Z,2.90
2017-07-05T08:34:33.269Z,3.00
2017-07-05T08:37:07.648Z,2.33
2017-07-05T08:39:42.125Z,2.05
2017-07-05T08:42:16.574Z,2.75
2017-07-05T08:44:51.057Z,4.82
2017-07-05T08:47:25.498Z,2.30
2017-07-05T08:49:59.983Z,2.83
2017-07-05T08:52:34.450Z,3.05
2017-07-05T08:55:08.986Z,2.75
2017-07-05T08:57:44.782Z,2.33
2017-07-05T09:00:19.272Z,2.60
2017-07-05T09:02:53.670Z,2.15
2017-07-05T09:08:33.335Z,2.65
2017-07-05T09:11:07.821Z,3.17
2017-07-05T09:13:42.434Z,1.80
2017-07-05T09:16:17.755Z,1.73
2017-07-05T09:18:52.318Z,3.55
2017-07-05T09:21:26.869Z,1.77
2017-07-05T09:24:01.261Z,1.90
2017-07-05T09:26:35.650Z,1.87
2017-07-05T09:29:10.257Z,2.90
2017-07-05T09:31:44.771Z,2.37
2017-07-05T09:34:19.385Z,4.20
2017-07-05T09:36:53.961Z,3.00
2017-07-05T09:39:28.403Z,2.95
2017-07-05T09:42:02.694Z,1.60
2017-07-05T09:44:37.337Z,3.43
2017-07-05T09:47:11.797Z,1.50
2017-07-05T09:49:46.188Z,3.83
2017-07-05T09:52:20.572Z,2.23
2017-07-05T09:54:55.093Z,2.07
2017-07-05T09:57:29.738Z,2.37
2017-07-05T10:03:09.814Z,1.20
2017-07-05T10:05:44.198Z,5.13
2017-07-05T10:08:19.574Z,2.50
2017-07-05T10:10:53.954Z,1.97
2017-07-05T10:13:28.450Z,1.43
2017-07-05T10:16:02.821Z,4.80
2017-07-05T10:18:37.242Z,2.47
2017-07-05T10:21:11.782Z,1.70
2017-07-05T10:23:46.193Z,2.10
2017-07-05T10:26:20.665Z,2.67
2017-07-05T10:28:55.158Z,2.50
2017-07-05T10:31:29.492Z,1.90
2017-07-05T10:34:04.176Z,3.47
2017-07-05T10:36:38.885Z,3.07
2017-07-05T10:39:13.491Z,1.63
2017-07-05T10:41:47.933Z,2.17
2017-07-05T10:44:22.557Z,2.63
2017-07-05T10:46:57.063Z,1.70
2017-07-05T10:49:31.486Z,2.40
2017-07-05T10:52:05.950Z,2.53
2017-07-05T10:54:40.753Z,1.93
2017-07-05T10:57:15.268Z,1.60
2017-07-05T10:59:49.694Z,3.23
2017-07-05T11:02:24.074Z,1.50
2017-07-05T11:04:58.489Z,6.10
2017-07-05T11:07:32.842Z,2.10
2017-07-05T11:10:07.577Z,2.33
2017-07-05T11:12:42.066Z,1.70
2017-07-05T11:15:16.432Z,1.87
2017-07-05T11:17:51.029Z,3.37
2017-07-05T11:20:25.457Z,1.50
2017-07-05T11:22:59.961Z,2.43
2017-07-05T11:25:34.303Z,3.23
2017-07-05T11:28:09.367Z,2.03
2017-07-05T11:30:43.891Z,2.40
2017-07-05T11:33:18.366Z,1.73
2017-07-05T11:35:52.914Z,2.17
2017-07-05T11:38:27.294Z,1.77
2017-07-05T11:41:01.755Z,1.60
2017-07-05T11:43:36.122Z,3.00
2017-07-05T11:46:10.497Z,1.87
2017-07-05T11:48:45.773Z,1.80
2017-07-05T11:51:20.953Z,1.77
2017-07-05T11:53:55.266Z,3.63
2017-07-05T11:56:29.778Z,3.33
2017-07-05T11:59:04.174Z,2.63
2017-07-05T12:01:38.590Z,1.97
2017-07-05T12:04:13.129Z,2.60
2017-07-05T12:06:47.575Z,2.20
2017-07-05T12:09:22.070Z,1.53
2017-07-05T12:11:56.485Z,5.43
2017-07-05T12:14:30.881Z,3.13
2017-07-05T12:17:05.377Z,3.23
2017-07-05T12:19:39.869Z,1.93
2017-07-05T12:22:14.588Z,1.53
2017-07-05T12:24:49.069Z,2.30
2017-07-05T12:27:23.848Z,2.80
2017-07-05T12:29:58.158Z,5.27
2017-07-05T12:32:32.574Z,4.03
2017-07-05T12:35:07.042Z,1.50
2017-07-05T12:37:42.134Z,3.10
2017-07-05T12:40:16.654Z,5.40
2017-07-05T12:42:51.055Z,2.27
2017-07-05T12:45:25.593Z,1.87
2017-07-05T12:48:00.221Z,1.97
2017-07-05T12:50:34.598Z,1.97
2017-07-05T12:53:09.055Z,1.20
2017-07-05T12:55:43.554Z,2.33
2017-07-05T12:58:18.015Z,2.77
2017-07-05T13:00:52.515Z,2.00
2017-07-05T13:03:27.861Z,1.50
2017-07-05T13:06:02.153Z,1.30
2017-07-05T13:08:36.803Z,1.60
2017-07-05T13:11:11.898Z,1.87
2017-07-05T13:14:07.658Z,3.23
2017-07-05T13:16:42.155Z,2.23
2017-07-05T13:19:16.805Z,1.80
2017-07-05T13:21:51.186Z,1.20
2017-07-05T13:24:25.690Z,2.17
2017-07-05T13:27:00.496Z,1.67
2017-07-05T13:29:34.777Z,1.43
2017-07-05T13:32:09.181Z,2.27
2017-07-05T13:34:43.702Z,2.13
2017-07-05T13:37:18.583Z,2.70
2017-07-05T13:39:53.224Z,1.37
2017-07-05T13:42:27.704Z,1.40
2017-07-05T13:45:02.021Z,2.53
2017-07-05T13:47:36.845Z,1.67
2017-07-05T13:50:12.057Z,1.97
2017-07-05T13:55:50.733Z,2.40
2017-07-05T13:58:25.241Z,1.40
2017-07-05T14:00:59.800Z,1.73
2017-07-05T14:06:37.958Z,1.60
2017-07-05T14:09:12.257Z,2.67
2017-07-05T14:11:46.730Z,2.83
2017-07-05T14:14:21.149Z,1.40
2017-07-05T14:16:55.580Z,1.30
2017-07-05T14:19:30.077Z,1.60
2017-07-05T14:22:04.518Z,3.23
2017-07-05T14:24:39.036Z,1.93
2017-07-05T14:27:13.557Z,1.47
2017-07-05T14:29:47.855Z,2.07
2017-07-05T14:32:22.254Z,1.93
2017-07-05T14:34:56.657Z,2.47
2017-07-05T14:37:31.042Z,2.17
2017-07-05T14:43:09.945Z,3.40
2017-07-05T14:45:44.618Z,1.40
2017-07-05T14:48:18.910Z,3.20
2017-07-05T14:50:53.362Z,1.40
2017-07-05T14:56:31.757Z,1.87
2017-07-05T14:59:06.253Z,1.90
2017-07-05T15:01:41.535Z,1.77
2017-07-05T15:04:16.010Z,1.30
2017-07-05T15:06:50.361Z,1.70
2017-07-05T15:09:24.847Z,3.00
2017-07-05T15:11:59.619Z,1.33
2017-07-05T15:14:34.115Z,1.30
2017-07-05T15:17:08.717Z,1.77
2017-07-05T15:19:43.252Z,1.70
2017-07-05T15:22:17.693Z,2.40
2017-07-05T15:24:53.061Z,1.27
2017-07-05T15:27:27.456Z,2.60
2017-07-05T15:30:02.009Z,4.03
2017-07-05T15:32:36.532Z,1.63
2017-07-05T15:35:10.994Z,1.33
2017-07-05T15:37:45.513Z,1.30
2017-07-05T15:40:19.925Z,1.43
2017-07-05T15:42:55.491Z,1.70
2017-07-05T15:45:29.917Z,2.60
2017-07-05T15:48:04.456Z,1.90
2017-07-05T15:50:38.994Z,1.52
2017-07-05T15:53:13.527Z,2.30
2017-07-05T15:55:48.073Z,3.80
2017-07-05T15:58:22.756Z,1.40
2017-07-05T16:00:57.142Z,2.80
2017-07-05T16:03:31.681Z,1.50
2017-07-05T16:06:06.288Z,1.50
2017-07-05T16:08:40.805Z,1.30
2017-07-05T16:11:15.753Z,2.33
2017-07-05T16:13:50.235Z,1.40
2017-07-05T16:16:24.714Z,2.27
2017-07-05T16:18:59.422Z,3.83
2017-07-05T16:21:33.934Z,1.83
2017-07-05T16:24:08.405Z,1.50
2017-07-05T16:26:42.762Z,2.33
2017-07-05T16:29:17.602Z,1.13
2017-07-05T16:31:52.890Z,2.85
2017-07-05T16:34:27.477Z,1.48
2017-07-05T16:37:01.930Z,2.92
2017-07-05T16:39:36.628Z,1.60
2017-07-05T16:42:11.163Z,1.50
2017-07-05T16:44:45.581Z,2.53
2017-07-05T16:47:20.907Z,3.33
2017-07-05T16:49:55.322Z,3.10
2017-07-05T16:52:29.710Z,1.62
2017-07-05T16:55:04.322Z,1.20
2017-07-05T16:57:38.798Z,2.17
2017-07-05T17:00:14.061Z,1.70
2017-07-05T17:02:50.445Z,1.48
2017-07-05T17:05:25.321Z,4.65
2017-07-05T17:07:59.873Z,1.85
2017-07-05T17:10:34.399Z,2.72
2017-07-05T17:13:09.690Z,1.98
2017-07-05T17:15:44.545Z,1.40
2017-07-05T17:18:19.825Z,1.40
2017-07-05T17:20:55.056Z,1.62
2017-07-05T17:23:29.502Z,1.50
2017-07-05T17:26:04.014Z,2.05
2017-07-05T17:28:38.889Z,1.30
2017-07-05T17:31:14.293Z,3.62
2017-07-05T17:33:48.734Z,3.20
2017-07-05T17:36:23.919Z,2.00
2017-07-05T17:38:58.779Z,2.12
2017-07-05T17:41:33.438Z,2.20
2017-07-05T17:44:07.911Z,2.03
2017-07-05T17:46:42.533Z,2.65
2017-07-05T17:49:17.703Z,1.20
2017-07-05T17:51:52.180Z,1.75
2017-07-05T17:54:26.741Z,1.85
2017-07-05T17:57:01.207Z,1.65
2017-07-05T17:59:35.625Z,3.45
2017-07-05T18:02:10.013Z,1.50
2017-07-05T18:04:44.541Z,2.12
2017-07-05T18:07:18.984Z,1.80
2017-07-05T18:09:53.506Z,1.85
2017-07-05T18:12:28.833Z,2.08
2017-07-05T18:15:04.188Z,3.30
2017-07-05T18:17:38.889Z,2.12
2017-07-05T18:20:13.555Z,2.35
2017-07-05T18:22:47.830Z,4.18
2017-07-05T18:25:22.380Z,1.70
2017-07-05T18:27:56.899Z,1.60
2017-07-05T18:30:32.202Z,3.08
2017-07-05T18:33:06.967Z,3.30
2017-07-05T18:35:42.150Z,1.25
2017-07-05T18:38:17.326Z,2.10
2017-07-05T18:40:52.661Z,2.70
2017-07-05T18:43:28.202Z,1.77
2017-07-05T18:46:02.760Z,2.20
2017-07-05T18:48:37.366Z,1.87
2017-07-05T18:51:12.671Z,5.70
2017-07-05T18:53:47.321Z,4.40
2017-07-05T18:56:21.841Z,1.45
2017-07-05T18:58:57.074Z,2.28
2017-07-05T19:01:31.597Z,2.20
2017-07-05T19:04:07.045Z,2.97
2017-07-05T19:06:41.550Z,2.05
2017-07-05T19:09:16.407Z,2.75
2017-07-05T19:11:50.974Z,1.90
2017-07-05T19:14:25.810Z,2.70
2017-07-05T19:17:00.361Z,1.62
2017-07-05T19:19:34.887Z,2.35
2017-07-05T19:22:09.255Z,2.25
2017-07-05T19:24:43.772Z,2.15
2017-07-05T19:27:19.019Z,2.35
2017-07-05T19:29:53.765Z,3.85
2017-07-05T19:32:28.293Z,3.75
2017-07-05T19:35:02.937Z,2.20
2017-07-05T19:37:37.740Z,2.55
2017-07-05T19:40:13.444Z,1.92
2017-07-05T19:42:48.955Z,2.58
2017-07-05T19:45:23.591Z,3.42
2017-07-05T19:47:58.730Z,3.97
2017-07-05T19:50:33.349Z,2.35
2017-07-05T19:53:07.867Z,3.22
2017-07-05T19:55:43.204Z,3.17
2017-07-05T19:58:17.657Z,3.78
2017-07-05T20:00:52.154Z,4.95
2017-07-05T20:03:26.654Z,2.92
2017-07-05T20:06:01.363Z,5.18
2017-07-05T20:08:35.825Z,7.68
2017-07-05T20:11:10.317Z,3.60
2017-07-05T20:13:44.763Z,2.75
2017-07-05T20:16:19.277Z,3.15
2017-07-05T20:18:53.709Z,6.25
2017-07-05T20:21:28.218Z,2.70
2017-07-05T20:24:02.769Z,3.00
2017-07-05T20:26:37.226Z,2.83
2017-07-05T20:29:11.704Z,4.47
2017-07-05T20:31:46.182Z,3.25
2017-07-05T20:34:20.729Z,2.85
2017-07-05T20:36:55.038Z,4.87
2017-07-05T20:39:29.449Z,2.37
2017-07-05T20:42:03.956Z,3.80
2017-07-05T20:44:38.562Z,5.28
2017-07-05T20:47:12.971Z,2.58
2017-07-05T20:49:47.510Z,4.00
2017-07-05T20:52:22.161Z,7.53
2017-07-05T20:54:56.679Z,2.80
2017-07-05T20:57:31.114Z,2.85
2017-07-05T21:00:05.657Z,3.70
2017-07-05T21:02:40.126Z,3.33
2017-07-05T21:05:14.764Z,6.28
2017-07-05T21:07:49.290Z,3.90
2017-07-05T21:10:23.848Z,3.70
2017-07-05T21:12:58.198Z,3.30
2017-07-05T21:15:32.671Z,3.28
2017-07-05T21:18:07.133Z,4.50
2017-07-05T21:20:41.601Z,2.78
2017-07-05T21:23:16.114Z,2.85
2017-07-05T21:25:50.649Z,4.68
2017-07-05T21:28:25.026Z,3.03
2017-07-05T21:30:59.686Z,2.40
2017-07-05T21:33:34.187Z,4.28
2017-07-05T21:36:08.633Z,4.40
2017-07-05T21:38:43.152Z,4.32
2017-07-05T21:41:17.553Z,4.47
2017-07-05T21:43:52.077Z,3.90
2017-07-05T21:46:26.485Z,5.00
2017-07-05T21:49:00.989Z,2.33
2017-07-05T21:51:35.453Z,3.00
2017-07-05T21:54:09.968Z,3.15
2017-07-05T21:56:45.106Z,3.92
2017-07-05T21:59:19.606Z,6.18
2017-07-05T22:01:54.057Z,2.70
2017-07-05T22:04:28.538Z,2.97
2017-07-05T22:07:02.963Z,8.40
2017-07-05T22:09:38.305Z,6.68
2017-07-05T22:12:12.710Z,3.92
2017-07-05T22:14:47.985Z,3.65
2017-07-05T22:17:22.474Z,2.33
2017-07-05T22:19:57.237Z,5.90
2017-07-05T22:22:31.656Z,4.93
2017-07-05T22:25:06.081Z,2.55
2017-07-05T22:27:40.490Z,4.03
2017-07-05T22:30:14.829Z,3.25
2017-07-05T22:32:49.317Z,3.30
2017-07-05T22:35:23.762Z,8.98
2017-07-05T22:37:59.053Z,5.78
2017-07-05T22:40:33.501Z,4.72
2017-07-05T22:43:08.022Z,4.05
2017-07-05T22:45:43.141Z,4.05
2017-07-05T22:48:18.511Z,2.80
2017-07-05T22:50:52.893Z,5.85
2017-07-05T22:53:27.358Z,2.60
2017-07-05T22:56:01.891Z,5.43
2017-07-05T22:58:36.398Z,2.90
2017-07-05T23:01:10.805Z,4.78
2017-07-05T23:03:45.534Z,4.07
2017-07-05T23:06:20.862Z,2.47
2017-07-05T23:08:55.277Z,3.03
2017-07-05T23:11:30.593Z,2.70
2017-07-05T23:14:05.193Z,3.62
2017-07-05T23:16:39.654Z,5.32
2017-07-05T23:19:14.057Z,3.92
2017-07-05T23:21:48.527Z,4.85
2017-07-05T23:24:22.934Z,6.65
2017-07-05T23:26:57.473Z,4.10
2017-07-05T23:29:31.986Z,3.08
2017-07-05T23:32:06.443Z,4.10
2017-07-05T23:34:41.646Z,2.90
2017-07-05T23:37:16.940Z,4.40
2017-07-05T23:39:51.386Z,3.83
2017-07-05T23:42:25.957Z,3.97
2017-07-05T23:45:00.375Z,3.20
2017-07-05T23:47:34.834Z,4.37
2017-07-05T23:50:10.314Z,2.92
2017-07-05T23:52:44.650Z,6.43
2017-07-05T23:55:19.009Z,4.85
2017-07-05T23:57:54.258Z,5.50
